createdAt,value
2019-03-29T00:02:05.134Z,81.00
2019-03-29T00:04:38.262Z,80.70
2019-03-29T00:07:11.514Z,80.10
2019-03-29T00:09:45.022Z,79.90
2019-03-29T00:12:17.991Z,79.50
2019-03-29T00:14:50.914Z,79.50
2019-03-29T00:17:24.092Z,79.30
2019-03-29T00:19:57.251Z,78.50
2019-03-29T00:22:30.325Z,78.50
2019-03-29T00:25:03.902Z,78.20
2019-03-29T00:27:36.730Z,78.10
2019-03-29T00:30:10.164Z,78.70
2019-03-29T00:32:42.968Z,78.30
2019-03-29T00:35:16.009Z,79.00
2019-03-29T00:37:53.877Z,78.20
2019-03-29T00:40:23.734Z,78.10
2019-03-29T00:42:56.684Z,79.00
2019-03-29T00:45:29.644Z,78.30
2019-03-29T00:48:02.561Z,77.90
2019-03-29T00:50:35.449Z,77.50
2019-03-29T00:53:24.717Z,77.00
2019-03-29T00:55:59.493Z,78.30
2019-03-29T00:58:32.562Z,78.00
2019-03-29T01:01:11.830Z,77.80
2019-03-29T01:03:45.194Z,77.40
2019-03-29T01:06:28.529Z,78.00
2019-03-29T01:09:08.574Z,78.00
2019-03-29T01:11:41.562Z,79.10
2019-03-29T01:14:19.261Z,78.50
2019-03-29T01:16:52.120Z,79.00
2019-03-29T01:19:30.458Z,78.90
2019-03-29T01:22:05.985Z,79.40
2019-03-29T01:24:46.717Z,79.30
2019-03-29T01:27:30.491Z,79.90
2019-03-29T01:30:04.525Z,80.00
2019-03-29T01:32:37.401Z,79.70
2019-03-29T01:35:10.934Z,79.50
2019-03-29T01:37:43.781Z,79.80
2019-03-29T01:40:16.858Z,79.60
2019-03-29T01:42:49.725Z,79.60
2019-03-29T01:45:22.616Z,78.80
2019-03-29T01:47:56.143Z,79.20
2019-03-29T01:50:29.278Z,79.40
2019-03-29T01:53:02.082Z,79.50
2019-03-29T01:55:34.825Z,80.20
2019-03-29T01:58:07.783Z,80.10
2019-03-29T02:00:40.549Z,80.20
2019-03-29T02:03:13.434Z,79.80
2019-03-29T02:05:46.117Z,79.60
2019-03-29T02:08:18.897Z,79.70
2019-03-29T02:10:51.933Z,80.60
2019-03-29T02:13:25.978Z,80.80
2019-03-29T02:15:59.039Z,80.50
2019-03-29T02:18:31.923Z,81.00
2019-03-29T02:21:05.036Z,81.40
2019-03-29T02:23:37.905Z,81.00
2019-03-29T02:26:10.821Z,81.00
2019-03-29T02:28:44.233Z,81.70
2019-03-29T02:31:18.015Z,82.10
2019-03-29T02:33:51.029Z,82.50
2019-03-29T02:36:24.092Z,83.30
2019-03-29T02:38:58.957Z,82.90
2019-03-29T02:41:31.605Z,81.70
2019-03-29T02:44:04.714Z,82.30
2019-03-29T02:46:37.644Z,83.60
2019-03-29T02:49:12.719Z,82.10
2019-03-29T02:51:45.571Z,82.10
2019-03-29T02:54:18.485Z,82.00
2019-03-29T02:56:51.446Z,81.70
2019-03-29T02:59:24.544Z,82.00
2019-03-29T03:01:57.569Z,82.00
2019-03-29T03:04:30.489Z,82.10
2019-03-29T03:07:03.587Z,82.70
2019-03-29T03:09:36.659Z,83.90
2019-03-29T03:12:09.857Z,82.90
2019-03-29T03:14:42.965Z,83.60
2019-03-29T03:17:15.936Z,84.00
2019-03-29T03:19:48.869Z,84.20
2019-03-29T03:35:58.142Z,84.60
2019-03-29T03:38:31.860Z,84.50
2019-03-29T03:41:05.591Z,84.80
2019-03-29T03:43:39.354Z,85.10
2019-03-29T03:46:12.974Z,85.10
2019-03-29T03:48:46.708Z,85.40
2019-03-29T03:51:20.832Z,85.40
2019-03-29T03:53:55.675Z,85.40
2019-03-29T03:56:30.864Z,85.40
2019-03-29T03:59:06.797Z,85.60
2019-03-29T04:01:40.429Z,85.70
2019-03-29T04:04:14.494Z,85.10
2019-03-29T04:06:48.419Z,85.20
2019-03-29T04:09:22.438Z,85.30
2019-03-29T04:11:56.214Z,85.30
2019-03-29T04:14:29.784Z,84.90
2019-03-29T04:17:03.206Z,84.50
2019-03-29T04:19:37.081Z,85.00
2019-03-29T04:22:11.294Z,85.00
2019-03-29T04:24:45.073Z,85.10
2019-03-29T04:27:18.938Z,84.90
2019-03-29T04:29:52.817Z,84.80
2019-03-29T04:32:26.283Z,84.30
2019-03-29T04:35:00.454Z,85.00
2019-03-29T04:37:34.292Z,85.10
2019-03-29T04:40:09.172Z,85.20
2019-03-29T04:42:43.228Z,84.50
2019-03-29T04:45:17.237Z,84.70
2019-03-29T04:47:50.957Z,84.50
2019-03-29T04:50:24.782Z,84.10
2019-03-29T04:52:58.601Z,83.70
2019-03-29T04:55:32.527Z,84.20
2019-03-29T04:58:06.604Z,84.60
2019-03-29T05:00:40.209Z,86.20
2019-03-29T05:03:13.786Z,84.10
2019-03-29T05:05:48.346Z,83.40
2019-03-29T05:08:22.325Z,83.60
2019-03-29T05:10:56.092Z,83.00
2019-03-29T05:13:29.674Z,82.50
2019-03-29T05:16:03.705Z,82.00
2019-03-29T05:18:37.493Z,81.80
2019-03-29T05:21:11.090Z,81.10
2019-03-29T05:23:44.789Z,80.70
2019-03-29T05:26:18.652Z,80.50
2019-03-29T05:28:52.840Z,80.30
2019-03-29T05:31:26.875Z,80.50
2019-03-29T05:34:00.765Z,80.30
2019-03-29T05:36:34.813Z,80.00
2019-03-29T05:39:09.393Z,79.20
2019-03-29T05:41:43.378Z,78.80
2019-03-29T05:44:17.231Z,78.60
2019-03-29T05:46:50.884Z,78.30
2019-03-29T05:49:24.508Z,77.10
2019-03-29T05:51:58.598Z,76.60
2019-03-29T05:54:32.654Z,75.80
2019-03-29T05:57:06.732Z,75.90
2019-03-29T05:59:40.563Z,75.20
2019-03-29T06:02:14.552Z,75.50
2019-03-29T06:04:48.570Z,72.70
2019-03-29T06:07:22.384Z,72.30
2019-03-29T06:09:56.164Z,72.90
2019-03-29T06:12:29.790Z,70.80
2019-03-29T06:15:03.516Z,70.10
2019-03-29T06:17:48.411Z,68.40
2019-03-29T06:20:14.386Z,67.80
2019-03-29T06:22:49.756Z,67.50
2019-03-29T06:25:26.291Z,67.50
2019-03-29T06:27:59.926Z,67.80
2019-03-29T06:30:34.749Z,66.50
2019-03-29T06:33:08.416Z,66.20
2019-03-29T06:35:45.642Z,65.50
2019-03-29T06:38:22.792Z,65.40
2019-03-29T06:41:02.597Z,64.00
2019-03-29T06:43:32.417Z,64.20
2019-03-29T06:46:06.057Z,64.10
2019-03-29T06:48:39.837Z,63.80
2019-03-29T06:51:13.841Z,62.80
2019-03-29T06:53:47.616Z,62.30
2019-03-29T06:56:21.383Z,60.40
2019-03-29T06:58:55.630Z,60.30
2019-03-29T07:01:29.489Z,59.90
2019-03-29T07:04:03.359Z,58.90
2019-03-29T07:06:37.234Z,58.10
2019-03-29T07:09:12.445Z,57.20
2019-03-29T07:11:46.371Z,56.60
2019-03-29T07:14:20.458Z,56.80
2019-03-29T07:16:55.349Z,55.90
2019-03-29T07:19:29.254Z,54.10
2019-03-29T07:22:03.333Z,55.50
2019-03-29T07:24:37.107Z,54.10
2019-03-29T07:27:10.827Z,52.80
2019-03-29T07:29:44.524Z,52.20
2019-03-29T07:32:18.528Z,52.50
2019-03-29T07:34:52.224Z,52.30
2019-03-29T07:37:26.280Z,51.10
2019-03-29T07:40:00.568Z,50.60
2019-03-29T07:42:34.254Z,48.30
2019-03-29T07:45:10.348Z,47.90
2019-03-29T07:47:44.513Z,47.40
2019-03-29T07:50:19.210Z,48.40
2019-03-29T07:52:53.459Z,47.40
2019-03-29T07:55:27.689Z,46.90
2019-03-29T07:58:01.783Z,44.90
2019-03-29T08:00:35.673Z,45.70
2019-03-29T08:03:09.737Z,46.20
2019-03-29T08:05:45.490Z,45.90
2019-03-29T08:08:24.667Z,45.80
2019-03-29T08:10:55.090Z,46.40
2019-03-29T08:13:29.266Z,45.20
2019-03-29T08:16:06.488Z,45.50
2019-03-29T08:18:40.033Z,45.60
2019-03-29T08:21:13.945Z,44.50
2019-03-29T08:23:47.794Z,44.90
2019-03-29T08:26:22.048Z,44.70
2019-03-29T08:28:55.973Z,44.40
2019-03-29T08:31:29.877Z,45.00
2019-03-29T08:34:03.635Z,44.10
2019-03-29T08:36:37.747Z,44.00
2019-03-29T08:39:11.648Z,44.00
2019-03-29T08:41:59.063Z,44.10
2019-03-29T08:44:21.722Z,43.30
2019-03-29T08:46:55.409Z,43.10
2019-03-29T08:49:29.459Z,44.30
2019-03-29T08:52:03.344Z,43.60
2019-03-29T08:54:37.080Z,43.70
2019-03-29T08:57:15.629Z,43.10
2019-03-29T08:59:49.381Z,42.30
2019-03-29T09:02:25.058Z,43.00
2019-03-29T09:05:02.500Z,42.40
2019-03-29T09:07:44.780Z,42.50
2019-03-29T09:10:25.296Z,41.60
2019-03-29T09:12:58.979Z,42.90
2019-03-29T09:15:33.182Z,41.90
2019-03-29T09:18:07.047Z,41.10
2019-03-29T09:20:41.583Z,40.40
2019-03-29T09:23:16.988Z,40.50
2019-03-29T09:25:52.555Z,40.70
2019-03-29T09:28:27.846Z,40.00
2019-03-29T09:31:01.602Z,41.10
2019-03-29T09:33:35.306Z,41.60
2019-03-29T09:36:09.419Z,42.60
2019-03-29T09:38:43.892Z,43.80
2019-03-29T09:41:18.003Z,41.40
2019-03-29T09:43:54.321Z,41.70
2019-03-29T09:46:27.867Z,40.80
2019-03-29T09:49:01.460Z,41.10
2019-03-29T09:51:36.130Z,40.50
2019-03-29T09:54:11.081Z,40.80
2019-03-29T09:56:48.195Z,42.00
2019-03-29T09:59:23.011Z,42.00
2019-03-29T10:01:56.176Z,40.10
2019-03-29T10:04:30.043Z,39.50
2019-03-29T10:07:05.185Z,39.80
2019-03-29T10:09:39.074Z,40.60
2019-03-29T10:12:12.855Z,41.10
2019-03-29T10:14:46.925Z,38.60
2019-03-29T10:17:21.249Z,39.30
2019-03-29T10:19:55.890Z,39.60
2019-03-29T10:22:30.000Z,39.70
2019-03-29T10:25:18.037Z,39.20
2019-03-29T10:27:39.668Z,39.20
2019-03-29T10:30:15.547Z,38.90
2019-03-29T10:32:49.449Z,38.40
2019-03-29T10:35:23.471Z,38.70
2019-03-29T10:37:57.407Z,38.20
2019-03-29T10:40:31.528Z,37.70
2019-03-29T10:43:05.616Z,37.70
2019-03-29T10:45:40.668Z,37.40
2019-03-29T10:48:15.214Z,37.30
2019-03-29T10:50:49.046Z,37.60
2019-03-29T10:53:22.725Z,37.00
2019-03-29T10:55:56.607Z,38.80
2019-03-29T10:58:30.924Z,37.50
2019-03-29T11:01:06.315Z,36.50
2019-03-29T11:03:41.884Z,37.10
2019-03-29T11:06:16.181Z,36.70
2019-03-29T11:08:50.100Z,35.30
2019-03-29T11:11:24.063Z,35.10
2019-03-29T11:13:57.858Z,35.90
2019-03-29T11:16:33.385Z,35.60
2019-03-29T11:19:07.239Z,36.10
2019-03-29T11:21:41.254Z,35.80
2019-03-29T11:24:15.184Z,35.40
2019-03-29T11:26:49.118Z,34.40
2019-03-29T11:29:22.918Z,34.30
2019-03-29T11:31:56.930Z,34.40
2019-03-29T11:34:31.016Z,35.10
2019-03-29T11:37:05.041Z,35.60
2019-03-29T11:39:38.989Z,34.30
2019-03-29T11:42:13.004Z,34.50
2019-03-29T11:44:46.928Z,34.20
2019-03-29T11:47:20.780Z,32.70
2019-03-29T11:49:54.685Z,34.80
2019-03-29T11:52:28.827Z,35.40
2019-03-29T11:55:02.936Z,34.10
2019-03-29T11:57:37.108Z,34.00
2019-03-29T12:00:12.411Z,35.20
2019-03-29T12:02:46.414Z,35.40
2019-03-29T12:05:20.508Z,35.40
2019-03-29T12:07:54.823Z,34.50
2019-03-29T12:10:28.727Z,35.00
2019-03-29T12:13:02.650Z,33.70
2019-03-29T12:15:36.794Z,34.60
2019-03-29T12:18:10.851Z,35.10
2019-03-29T12:20:44.820Z,34.80
2019-03-29T12:23:18.525Z,34.70
2019-03-29T12:25:52.272Z,33.50
2019-03-29T12:28:26.269Z,33.80
2019-03-29T12:31:00.360Z,33.80
2019-03-29T12:33:34.118Z,33.20
2019-03-29T12:36:08.331Z,33.80
2019-03-29T12:38:42.143Z,35.40
2019-03-29T12:41:16.107Z,34.00
2019-03-29T12:43:55.747Z,34.70
2019-03-29T12:46:25.510Z,34.60
2019-03-29T12:48:59.693Z,34.10
2019-03-29T12:51:33.565Z,34.80
2019-03-29T12:54:07.945Z,34.60
2019-03-29T12:56:42.197Z,34.20
2019-03-29T12:59:16.186Z,34.30
2019-03-29T13:01:50.106Z,33.60
2019-03-29T13:04:24.543Z,34.30
2019-03-29T13:06:58.729Z,33.80
2019-03-29T13:09:32.697Z,34.30
2019-03-29T13:12:06.880Z,35.30
2019-03-29T13:14:41.922Z,34.80
2019-03-29T13:17:16.073Z,35.40
2019-03-29T13:19:49.782Z,35.70
2019-03-29T13:22:24.291Z,35.10
2019-03-29T13:24:58.119Z,35.10
2019-03-29T13:27:34.043Z,36.30
2019-03-29T13:30:10.002Z,36.60
2019-03-29T13:32:44.572Z,36.40
2019-03-29T13:35:18.632Z,36.50
2019-03-29T13:37:52.552Z,36.10
2019-03-29T13:40:26.487Z,36.00
2019-03-29T13:43:01.473Z,36.70
2019-03-29T13:45:35.386Z,37.50
2019-03-29T13:48:09.449Z,37.00
2019-03-29T13:50:43.605Z,37.70
2019-03-29T13:53:17.455Z,38.40
2019-03-29T13:55:51.560Z,37.80
2019-03-29T13:58:28.703Z,37.10
2019-03-29T14:01:02.850Z,36.60
2019-03-29T14:03:37.086Z,37.00
2019-03-29T14:06:11.002Z,37.10
2019-03-29T14:08:44.935Z,37.30
2019-03-29T14:11:18.699Z,37.00
2019-03-29T14:13:53.043Z,37.80
2019-03-29T14:16:26.987Z,37.90
2019-03-29T14:19:00.705Z,37.00
2019-03-29T14:21:34.663Z,36.90
2019-03-29T14:24:08.970Z,36.70
2019-03-29T14:26:42.983Z,37.00
2019-03-29T14:29:17.491Z,36.70
2019-03-29T14:31:54.028Z,36.40
2019-03-29T14:34:27.199Z,37.20
2019-03-29T14:37:01.362Z,37.30
2019-03-29T14:39:35.250Z,38.00
2019-03-29T14:42:12.401Z,37.60
2019-03-29T14:44:52.293Z,37.00
2019-03-29T14:47:20.390Z,37.50
2019-03-29T14:49:54.368Z,38.10
2019-03-29T14:52:28.510Z,38.00
2019-03-29T14:55:02.378Z,38.40
2019-03-29T14:57:36.188Z,38.70
2019-03-29T15:00:12.726Z,38.20
2019-03-29T15:02:46.591Z,38.10
2019-03-29T15:05:20.569Z,37.90
2019-03-29T15:07:54.476Z,38.00
2019-03-29T15:10:30.156Z,38.20
2019-03-29T15:13:04.164Z,38.60
2019-03-29T15:15:38.216Z,39.20
2019-03-29T15:18:12.252Z,39.10
2019-03-29T15:20:53.255Z,38.90
2019-03-29T15:23:21.845Z,39.30
2019-03-29T15:25:55.584Z,39.50
2019-03-29T15:28:29.242Z,40.00
2019-03-29T15:31:03.195Z,40.20
2019-03-29T15:33:37.209Z,40.40
2019-03-29T15:36:11.503Z,40.30
2019-03-29T15:38:45.351Z,40.70
2019-03-29T15:41:19.416Z,40.90
2019-03-29T15:43:53.081Z,41.50
2019-03-29T15:46:27.049Z,41.10
2019-03-29T15:49:01.584Z,41.00
2019-03-29T15:51:35.858Z,41.50
2019-03-29T15:54:10.327Z,41.40
2019-03-29T15:56:44.584Z,41.40
2019-03-29T15:59:18.509Z,41.30
2019-03-29T16:01:52.745Z,41.30
2019-03-29T16:04:26.612Z,42.00
2019-03-29T16:07:00.978Z,42.70
2019-03-29T16:09:35.867Z,42.90
2019-03-29T16:12:10.103Z,43.20
2019-03-29T16:14:44.043Z,43.40
2019-03-29T16:17:20.895Z,43.60
2019-03-29T16:19:56.533Z,43.90
2019-03-29T16:22:30.609Z,44.50
2019-03-29T16:25:04.801Z,44.10
2019-03-29T16:27:38.649Z,44.60
2019-03-29T16:30:13.284Z,44.60
2019-03-29T16:32:47.526Z,44.80
2019-03-29T16:35:22.551Z,45.00
2019-03-29T16:37:57.723Z,45.30
2019-03-29T16:40:31.919Z,45.50
2019-03-29T16:43:07.746Z,46.00
2019-03-29T16:45:47.927Z,46.20
2019-03-29T16:48:18.042Z,46.40
2019-03-29T16:50:52.236Z,46.40
2019-03-29T16:53:29.287Z,46.90
2019-03-29T16:56:02.870Z,47.40
2019-03-29T16:58:37.530Z,48.00
2019-03-29T17:01:11.618Z,48.30
2019-03-29T17:03:45.462Z,48.80
2019-03-29T17:06:19.936Z,49.00
2019-03-29T17:08:54.112Z,49.40
2019-03-29T17:11:27.389Z,49.70
2019-03-29T17:14:00.520Z,50.20
2019-03-29T17:16:33.946Z,50.40
2019-03-29T17:19:07.215Z,51.30
2019-03-29T17:21:40.303Z,51.00
2019-03-29T17:24:13.490Z,51.30
2019-03-29T17:26:46.768Z,51.60
2019-03-29T17:29:19.982Z,52.10
2019-03-29T17:31:53.045Z,52.20
2019-03-29T17:34:26.051Z,52.40
2019-03-29T17:36:59.203Z,52.80
2019-03-29T17:39:32.503Z,53.20
2019-03-29T17:42:05.721Z,53.70
2019-03-29T17:44:38.767Z,54.20
2019-03-29T17:47:11.813Z,54.80
2019-03-29T17:49:47.889Z,55.30
2019-03-29T17:52:21.113Z,56.00
2019-03-29T17:54:55.109Z,56.30
2019-03-29T17:57:28.137Z,56.60
2019-03-29T18:00:01.286Z,56.90
2019-03-29T18:02:34.325Z,57.20
2019-03-29T18:05:08.500Z,57.60
2019-03-29T18:07:41.812Z,57.80
2019-03-29T18:10:15.183Z,58.10
2019-03-29T18:12:48.207Z,58.20
2019-03-29T18:15:21.733Z,58.40
2019-03-29T18:17:55.215Z,58.80
2019-03-29T18:20:28.571Z,59.10
2019-03-29T18:23:02.177Z,59.40
2019-03-29T18:25:35.745Z,59.60
2019-03-29T18:28:09.106Z,59.80
2019-03-29T18:30:46.119Z,60.00
2019-03-29T18:33:20.460Z,60.30
2019-03-29T18:35:54.143Z,60.90
2019-03-29T18:38:28.438Z,60.70
2019-03-29T18:41:01.346Z,61.40
2019-03-29T18:43:34.273Z,61.80
2019-03-29T18:46:08.874Z,61.90
2019-03-29T18:48:41.891Z,62.20
2019-03-29T18:51:15.124Z,62.70
2019-03-29T18:53:48.431Z,62.90
2019-03-29T18:56:21.564Z,62.80
2019-03-29T18:58:54.610Z,62.90
2019-03-29T19:01:27.886Z,63.10
2019-03-29T19:04:01.273Z,63.60
2019-03-29T19:06:34.683Z,63.50
2019-03-29T19:09:09.654Z,63.70
2019-03-29T19:11:43.030Z,64.10
2019-03-29T19:14:16.531Z,64.20
2019-03-29T19:16:58.970Z,64.40
2019-03-29T19:19:24.979Z,64.90
2019-03-29T19:21:58.800Z,65.40
2019-03-29T19:24:33.600Z,65.30
2019-03-29T19:27:06.901Z,66.30
2019-03-29T19:29:40.031Z,66.20
2019-03-29T19:32:13.118Z,66.00
2019-03-29T19:34:46.340Z,65.70
2019-03-29T19:37:19.735Z,66.00
2019-03-29T19:39:53.068Z,66.30
2019-03-29T19:42:26.265Z,66.10
2019-03-29T19:44:59.574Z,66.20
2019-03-29T19:47:32.679Z,66.60
2019-03-29T19:50:06.646Z,67.30
2019-03-29T19:52:39.814Z,67.60
2019-03-29T19:55:13.063Z,68.20
2019-03-29T19:57:46.610Z,68.30
2019-03-29T20:00:21.851Z,68.60
2019-03-29T20:02:55.476Z,68.80
2019-03-29T20:05:30.385Z,69.50
2019-03-29T20:08:03.797Z,69.60
2019-03-29T20:10:37.034Z,70.20
2019-03-29T20:13:10.510Z,70.60
2019-03-29T20:15:43.710Z,71.00
2019-03-29T20:18:17.000Z,71.70
2019-03-29T20:20:50.412Z,71.70
2019-03-29T20:23:23.604Z,71.70
2019-03-29T20:25:56.950Z,71.70
2019-03-29T20:28:30.432Z,72.50
2019-03-29T20:31:03.969Z,73.00
2019-03-29T20:33:37.228Z,73.80
2019-03-29T20:36:10.141Z,74.60
2019-03-29T20:38:43.248Z,75.60
2019-03-29T20:41:16.272Z,76.90
2019-03-29T20:43:49.480Z,77.40
2019-03-29T20:46:24.194Z,77.00
2019-03-29T20:48:57.251Z,76.60
2019-03-29T20:51:30.615Z,76.80
2019-03-29T20:54:04.190Z,77.60
2019-03-29T20:56:37.751Z,78.60
2019-03-29T20:59:12.683Z,79.40
2019-03-29T21:01:46.719Z,79.20
2019-03-29T21:04:19.941Z,79.20
2019-03-29T21:06:53.080Z,80.00
2019-03-29T21:09:28.277Z,81.00
2019-03-29T21:12:01.720Z,81.30
2019-03-29T21:14:35.243Z,82.10
2019-03-29T21:17:14.064Z,82.70
2019-03-29T21:19:49.401Z,82.40
2019-03-29T21:22:22.660Z,82.30
2019-03-29T21:24:56.053Z,82.30
2019-03-29T21:27:31.062Z,82.80
2019-03-29T21:30:05.160Z,83.60
2019-03-29T21:32:38.166Z,84.10
2019-03-29T21:35:11.279Z,83.30
2019-03-29T21:37:44.344Z,83.80
2019-03-29T21:40:18.591Z,83.90
2019-03-29T21:42:51.675Z,83.20
2019-03-29T21:45:29.117Z,82.80
2019-03-29T21:48:08.872Z,83.30
2019-03-29T21:50:34.757Z,83.20
2019-03-29T21:53:08.005Z,84.00
2019-03-29T21:55:41.448Z,84.40
2019-03-29T21:58:17.819Z,83.90
2019-03-29T22:00:51.085Z,83.00
2019-03-29T22:03:24.388Z,82.50
2019-03-29T22:05:58.517Z,82.90
2019-03-29T22:08:31.793Z,84.20
2019-03-29T22:11:05.304Z,84.30
2019-03-29T22:13:38.246Z,84.80
2019-03-29T22:16:11.184Z,84.70
2019-03-29T22:18:44.345Z,84.20
2019-03-29T22:21:17.547Z,84.40
2019-03-29T22:23:50.500Z,84.70
2019-03-29T22:26:23.487Z,85.60
2019-03-29T22:28:56.620Z,86.90
2019-03-29T22:31:29.602Z,87.20
2019-03-29T22:34:02.527Z,87.40
2019-03-29T22:36:35.641Z,87.40
2019-03-29T22:39:10.240Z,87.10
2019-03-29T22:41:43.348Z,86.90
2019-03-29T22:44:16.259Z,86.50
2019-03-29T22:46:49.276Z,87.00
2019-03-29T22:49:22.525Z,86.50
2019-03-29T22:51:55.626Z,86.00
2019-03-29T22:54:28.707Z,85.60
2019-03-29T22:57:01.852Z,85.20
2019-03-29T22:59:34.707Z,85.40
2019-03-29T23:02:07.906Z,86.00
2019-03-29T23:04:40.798Z,86.30
2019-03-29T23:07:13.813Z,86.70
2019-03-29T23:09:47.294Z,87.20
2019-03-29T23:12:20.404Z,88.00
2019-03-29T23:14:53.264Z,88.60
2019-03-29T23:17:26.175Z,89.00
2019-03-29T23:19:59.232Z,88.60
2019-03-29T23:22:32.263Z,88.70
2019-03-29T23:25:05.194Z,88.20
2019-03-29T23:27:38.349Z,88.30
2019-03-29T23:30:12.116Z,87.90
2019-03-29T23:32:45.009Z,88.50
2019-03-29T23:35:17.929Z,89.40
2019-03-29T23:37:50.770Z,89.40
2019-03-29T23:40:23.647Z,87.90
2019-03-29T23:42:56.572Z,87.60
2019-03-29T23:45:29.522Z,87.40
2019-03-29T23:48:02.309Z,87.50
2019-03-29T23:50:35.241Z,87.10
2019-03-29T23:53:08.013Z,86.90
2019-03-29T23:55:40.972Z,86.70
2019-03-29T23:58:13.849Z,87.00
